Time;durP1;ratioP1;P1;durP2;ratioP2;P2;SDS_P1;SDS_P2;PMS_P1;PMS_P2;Temp;Humidity;BMP_temperature;BMP_pressure;BME280_temperature;BME280_humidity;BME280_pressure;Samples;Min_cycle;Max_cycle;Signal;HPM_P1;HPM_P2
2023/10/08 00:02:22;;;;;;;2.70;1.67;;;15.00;99.90;;;;;;5062102;28;20064;-31
2023/10/08 00:04:50;;;;;;;1.95;1.60;;;14.90;99.90;;;;;;5063383;28;20133;-30
2023/10/08 00:07:21;;;;;;;2.70;2.00;;;14.80;99.90;;;;;;5057377;28;20041;-31
2023/10/08 00:09:53;;;;;;;2.17;1.88;;;14.80;99.90;;;;;;5058596;28;20051;-31
2023/10/08 00:12:19;;;;;;;2.60;1.70;;;14.70;99.90;;;;;;5056326;28;20094;-31
2023/10/08 00:14:49;;;;;;;2.15;1.40;;;14.70;99.90;;;;;;5055359;28;20072;-30
2023/10/08 00:17:18;;;;;;;2.60;1.30;;;14.50;99.90;;;;;;5056090;28;20071;-31
2023/10/08 00:19:44;;;;;;;1.88;1.40;;;14.50;99.90;;;;;;5064187;28;20075;-30
2023/10/08 00:22:12;;;;;;;1.90;1.15;;;14.40;99.90;;;;;;5054952;28;20060;-32
2023/10/08 00:24:40;;;;;;;1.00;1.00;;;14.40;99.90;;;;;;5062625;28;20123;-31
2023/10/08 00:27:07;;;;;;;1.55;1.20;;;14.30;99.90;;;;;;5057481;28;20037;-30
2023/10/08 00:29:33;;;;;;;1.60;1.30;;;14.30;99.90;;;;;;5060307;28;20123;-30
2023/10/08 00:31:58;;;;;;;1.67;1.27;;;14.30;99.90;;;;;;5065104;28;20108;-31
2023/10/08 00:34:24;;;;;;;1.85;1.00;;;14.20;99.90;;;;;;5063502;28;20039;-31
2023/10/08 00:36:51;;;;;;;1.58;0.90;;;14.20;99.90;;;;;;5059834;28;20040;-30
2023/10/08 00:39:24;;;;;;;1.98;0.88;;;14.20;99.90;;;;;;5061260;28;20028;-30
2023/10/08 00:41:51;;;;;;;1.10;1.00;;;14.20;99.90;;;;;;5056793;28;20052;-32
2023/10/08 00:44:23;;;;;;;0.90;0.90;;;14.10;99.90;;;;;;5066700;28;20037;-31
2023/10/08 00:46:50;;;;;;;1.37;0.90;;;14.10;99.90;;;;;;5060448;28;20535;-32
2023/10/08 00:57:28;;;;;;;1.63;0.98;;;14.10;99.90;;;;;;5058299;28;20514;-30
2023/10/08 00:59:55;;;;;;;2.47;1.10;;;14.00;99.90;;;;;;5059529;28;20120;-31
2023/10/08 01:02:27;;;;;;;1.83;0.85;;;14.00;99.90;;;;;;5061760;28;20040;-30
2023/10/08 01:04:54;;;;;;;2.05;0.93;;;14.00;99.90;;;;;;5062327;28;20040;-31
2023/10/08 01:07:21;;;;;;;1.30;1.20;;;14.00;99.90;;;;;;5054191;28;20107;-31
2023/10/08 01:09:50;;;;;;;2.28;1.75;;;13.90;99.90;;;;;;5058371;28;20040;-30
2023/10/08 01:14:53;;;;;;;2.47;2.25;;;13.90;99.90;;;;;;5040075;28;20464;-31
2023/10/08 01:17:24;;;;;;;3.28;2.50;;;13.80;99.90;;;;;;5058950;28;20047;-31
2023/10/08 01:19:54;;;;;;;2.95;2.42;;;13.90;99.90;;;;;;5062946;28;20380;-31
2023/10/08 01:22:22;;;;;;;2.88;2.58;;;13.80;99.90;;;;;;5053232;28;20044;-30
2023/10/08 01:24:51;;;;;;;3.50;3.20;;;13.90;99.90;;;;;;5058791;28;20049;-31
2023/10/08 01:27:24;;;;;;;3.70;3.10;;;13.80;99.90;;;;;;5059113;28;20055;-30
2023/10/08 01:29:51;;;;;;;3.17;2.97;;;13.90;99.90;;;;;;5055634;28;20071;-31
2023/10/08 01:32:19;;;;;;;3.30;2.53;;;13.90;99.90;;;;;;5059887;28;20041;-31
2023/10/08 01:34:47;;;;;;;3.58;2.67;;;13.80;99.90;;;;;;5057407;28;20037;-30
2023/10/08 01:37:16;;;;;;;2.40;2.20;;;13.80;99.90;;;;;;5054908;28;20067;-30
2023/10/08 01:39:43;;;;;;;2.38;2.17;;;13.80;99.90;;;;;;5054695;28;20041;-32
2023/10/08 01:42:17;;;;;;;2.45;2.10;;;13.80;99.90;;;;;;5060041;28;20761;-32
2023/10/08 01:44:48;;;;;;;2.10;1.80;;;13.70;99.90;;;;;;5057075;28;20549;-30
2023/10/08 01:47:16;;;;;;;3.05;2.03;;;13.70;99.90;;;;;;5057199;28;20439;-30
2023/10/08 01:49:46;;;;;;;2.17;1.60;;;13.70;99.90;;;;;;5031026;28;20042;-31
2023/10/08 01:52:22;;;;;;;2.55;1.58;;;13.70;99.90;;;;;;5052620;28;20393;-30
2023/10/08 01:54:48;;;;;;;2.13;1.65;;;13.70;99.90;;;;;;5056010;28;20047;-31
2023/10/08 01:57:15;;;;;;;1.83;1.60;;;13.70;99.90;;;;;;5054013;28;20447;-30
2023/10/08 01:59:41;;;;;;;2.75;1.42;;;13.70;99.90;;;;;;5062377;28;20040;-31
2023/10/08 02:02:07;;;;;;;2.30;1.60;;;13.70;99.90;;;;;;5057527;28;20040;-31
2023/10/08 02:04:35;;;;;;;2.13;1.70;;;13.70;99.90;;;;;;5058853;28;20039;-30
2023/10/08 02:07:12;;;;;;;1.70;1.20;;;13.70;99.90;;;;;;5060045;28;20403;-31
2023/10/08 02:09:38;;;;;;;1.58;1.48;;;13.70;99.90;;;;;;5055353;28;20053;-31
2023/10/08 02:12:04;;;;;;;1.40;1.30;;;13.70;99.90;;;;;;5058151;28;20040;-31
2023/10/08 02:14:35;;;;;;;2.33;1.50;;;13.70;99.90;;;;;;5057347;28;20082;-31
2023/10/08 02:17:06;;;;;;;1.63;1.30;;;13.70;99.90;;;;;;5054080;28;20079;-30
2023/10/08 02:19:32;;;;;;;1.60;1.50;;;13.70;99.90;;;;;;5063199;28;20493;-30
2023/10/08 02:21:58;;;;;;;1.55;1.30;;;13.70;99.90;;;;;;5056783;28;20094;-30
2023/10/08 02:24:25;;;;;;;1.40;1.30;;;13.60;99.90;;;;;;5054922;28;20120;-30
2023/10/08 02:26:52;;;;;;;1.48;1.35;;;13.60;99.90;;;;;;5058137;28;20041;-30
2023/10/08 02:29:17;;;;;;;1.90;1.70;;;13.70;99.90;;;;;;5055095;28;20525;-30
2023/10/08 02:31:43;;;;;;;1.48;1.38;;;13.70;99.90;;;;;;5056789;28;20041;-31
2023/10/08 02:34:09;;;;;;;2.35;1.63;;;13.70;99.90;;;;;;5056563;28;20037;-31
2023/10/08 02:36:40;;;;;;;1.92;1.38;;;13.60;99.90;;;;;;5060209;28;20554;-30
2023/10/08 02:39:13;;;;;;;1.25;1.10;;;13.60;99.90;;;;;;5052736;28;20090;-31
2023/10/08 02:41:45;;;;;;;2.00;1.42;;;13.60;99.90;;;;;;5058846;28;20037;-31
2023/10/08 02:44:13;;;;;;;3.42;1.63;;;13.60;99.90;;;;;;5056840;28;20131;-30
2023/10/08 02:46:44;;;;;;;1.63;1.40;;;13.60;99.90;;;;;;5055365;28;20033;-31
2023/10/08 02:49:11;;;;;;;1.90;1.60;;;13.60;99.90;;;;;;5051957;28;20077;-31
2023/10/08 02:51:40;;;;;;;2.08;1.33;;;13.50;99.90;;;;;;5059059;28;20036;-31
2023/10/08 02:54:08;;;;;;;2.17;1.80;;;13.50;99.90;;;;;;5057606;28;20099;-31
2023/10/08 02:56:34;;;;;;;3.95;1.60;;;13.60;99.90;;;;;;5056832;28;20086;-31
2023/10/08 02:59:00;;;;;;;1.70;1.58;;;13.60;99.90;;;;;;5054706;28;20041;-32
2023/10/08 03:01:26;;;;;;;2.30;1.80;;;13.50;99.90;;;;;;5053948;28;20041;-32
2023/10/08 03:04:03;;;;;;;1.77;1.67;;;13.50;99.90;;;;;;5056652;28;20067;-31
2023/10/08 03:06:31;;;;;;;1.80;1.70;;;13.50;99.90;;;;;;5053478;28;20098;-29
2023/10/08 03:09:03;;;;;;;1.83;1.73;;;13.50;99.90;;;;;;5057598;28;20458;-31
2023/10/08 03:11:31;;;;;;;2.20;1.60;;;13.50;99.90;;;;;;5062482;28;20522;-30
2023/10/08 03:13:57;;;;;;;3.33;2.08;;;13.50;99.90;;;;;;5056710;28;20086;-31
2023/10/08 03:16:28;;;;;;;3.38;1.73;;;13.50;99.90;;;;;;5059065;28;20449;-30
2023/10/08 03:18:57;;;;;;;1.70;1.60;;;13.50;99.90;;;;;;5059282;28;20041;-32
2023/10/08 03:21:48;;;;;;;2.10;1.67;;;13.50;99.90;;;;;;5061097;28;20083;-31
2023/10/08 03:24:29;;;;;;;1.77;1.40;;;13.50;99.90;;;;;;5057079;28;20040;-31
2023/10/08 03:29:43;;;;;;;2.00;1.70;;;13.40;99.90;;;;;;5040173;28;20068;-30
2023/10/08 03:32:15;;;;;;;2.70;1.50;;;13.40;99.90;;;;;;5059521;28;20049;-31
2023/10/08 03:34:46;;;;;;;2.83;1.50;;;13.40;99.90;;;;;;5058643;28;20124;-31
2023/10/08 03:37:19;;;;;;;2.33;2.03;;;13.30;99.90;;;;;;5057730;28;20408;-30
2023/10/08 03:40:00;;;;;;;3.17;1.80;;;13.30;99.90;;;;;;5056996;28;20041;-31
2023/10/08 03:42:26;;;;;;;2.40;1.52;;;13.30;99.90;;;;;;5052514;28;20033;-32
2023/10/08 03:44:52;;;;;;;1.90;1.77;;;13.30;99.90;;;;;;5054077;28;20072;-30
2023/10/08 03:47:19;;;;;;;2.88;1.92;;;13.30;99.90;;;;;;5059989;28;20119;-32
2023/10/08 03:49:51;;;;;;;2.35;1.73;;;13.30;99.90;;;;;;5058529;28;20466;-31
2023/10/08 03:52:26;;;;;;;2.20;1.63;;;13.30;99.90;;;;;;5051818;28;20059;-31
2023/10/08 03:55:13;;;;;;;1.73;1.58;;;13.30;99.90;;;;;;5055197;28;20032;-31
2023/10/08 03:57:41;;;;;;;3.03;1.80;;;13.30;99.90;;;;;;5055258;28;20040;-32
2023/10/08 04:00:28;;;;;;;1.80;1.67;;;13.30;99.90;;;;;;5056889;28;20503;-30
2023/10/08 04:02:55;;;;;;;2.75;1.65;;;13.30;99.90;;;;;;5054416;28;20407;-30
2023/10/08 04:05:32;;;;;;;2.20;1.77;;;13.30;99.90;;;;;;5058602;28;20488;-30
2023/10/08 04:13:09;;;;;;;6.70;2.20;;;13.30;99.90;;;;;;5058823;28;20041;-32
2023/10/08 04:15:41;;;;;;;1.70;1.60;;;13.30;99.90;;;;;;5055601;28;20114;-32
2023/10/08 04:18:08;;;;;;;1.92;1.60;;;13.40;99.90;;;;;;5062448;28;20033;-30
2023/10/08 04:20:38;;;;;;;2.08;1.88;;;13.30;99.90;;;;;;5060746;28;20407;-31
2023/10/08 04:23:04;;;;;;;2.05;1.80;;;13.30;99.90;;;;;;5060073;28;20114;-32
2023/10/08 04:25:31;;;;;;;1.85;1.70;;;13.30;99.90;;;;;;5058862;28;20148;-30
2023/10/08 04:27:58;;;;;;;2.65;2.25;;;13.30;99.90;;;;;;5060393;28;20353;-31
2023/10/08 04:30:34;;;;;;;2.20;1.95;;;13.30;99.90;;;;;;5060454;28;20029;-32
2023/10/08 04:33:07;;;;;;;3.08;2.10;;;13.20;99.90;;;;;;5060376;28;20376;-32
2023/10/08 04:35:47;;;;;;;2.55;2.15;;;13.20;99.90;;;;;;5048446;28;20047;-31
2023/10/08 04:38:17;;;;;;;2.70;2.10;;;13.20;99.90;;;;;;5056606;28;20037;-30
2023/10/08 04:40:48;;;;;;;3.22;2.17;;;13.20;99.90;;;;;;5061981;28;20040;-31
2023/10/08 04:43:25;;;;;;;2.45;2.25;;;13.20;99.90;;;;;;5060063;28;20083;-29
2023/10/08 04:45:56;;;;;;;4.63;2.05;;;13.20;99.90;;;;;;5057683;28;20072;-29
2023/10/08 04:48:23;;;;;;;3.67;1.98;;;13.20;99.90;;;;;;5060706;28;20440;-29
2023/10/08 04:50:58;;;;;;;4.55;2.28;;;13.20;99.90;;;;;;5064183;28;20126;-28
2023/10/08 04:53:40;;;;;;;2.83;1.70;;;13.20;99.90;;;;;;5053770;28;20512;-29
2023/10/08 04:56:13;;;;;;;2.13;1.92;;;13.20;99.90;;;;;;5060806;28;20051;-32
2023/10/08 04:58:48;;;;;;;3.30;1.63;;;13.20;99.90;;;;;;5060025;28;20037;-31
2023/10/08 05:01:18;;;;;;;2.55;1.92;;;13.30;99.90;;;;;;5055547;28;20319;-31
2023/10/08 05:04:07;;;;;;;3.75;1.98;;;13.20;99.90;;;;;;5058058;28;20041;-30
2023/10/08 05:52:11;;;;;;;2.35;1.30;;;13.10;99.90;;;;;;5053827;28;20052;-31
2023/10/08 06:03:00;;;;;;;4.20;1.20;;;13.00;99.90;;;;;;5058795;28;20523;-31
2023/10/08 06:07:56;;;;;;;3.20;1.10;;;13.00;99.90;;;;;;5057511;28;20040;-31
2023/10/08 06:15:48;;;;;;;5.43;1.40;;;13.10;99.90;;;;;;5058735;28;20041;-29
2023/10/08 06:18:29;;;;;;;4.18;1.30;;;13.10;99.90;;;;;;5060606;28;20037;-30
2023/10/08 06:20:58;;;;;;;1.20;0.90;;;13.10;99.90;;;;;;5059491;28;20036;-29
2023/10/08 06:23:25;;;;;;;2.80;1.02;;;13.10;99.90;;;;;;5064658;28;20055;-29
2023/10/08 06:25:58;;;;;;;3.00;1.08;;;13.10;99.90;;;;;;5066950;28;20487;-29
2023/10/08 06:28:25;;;;;;;3.28;1.00;;;13.10;99.90;;;;;;5059528;28;20120;-31
2023/10/08 06:30:56;;;;;;;2.13;1.02;;;13.20;99.90;;;;;;5062667;28;20036;-30
2023/10/08 06:33:30;;;;;;;5.07;1.10;;;13.20;99.90;;;;;;5054886;28;20041;-30
2023/10/08 06:36:02;;;;;;;2.72;1.27;;;13.30;99.90;;;;;;5052696;28;20954;-29
2023/10/08 06:38:32;;;;;;;3.42;1.10;;;13.20;99.90;;;;;;5059757;28;20040;-29
2023/10/08 06:41:08;;;;;;;4.38;1.10;;;13.30;99.90;;;;;;5051961;28;20045;-30
2023/10/08 06:43:36;;;;;;;8.13;1.38;;;13.30;99.90;;;;;;5060037;28;20412;-31
2023/10/08 06:46:12;;;;;;;5.75;1.20;;;13.30;99.90;;;;;;5055919;28;20037;-31
2023/10/08 06:48:41;;;;;;;3.72;1.40;;;13.30;99.90;;;;;;5055813;28;20045;-30
2023/10/08 06:51:12;;;;;;;3.65;1.50;;;13.40;99.90;;;;;;5053820;28;20052;-30
2023/10/08 06:53:44;;;;;;;4.32;1.52;;;13.40;99.90;;;;;;5060060;28;20052;-29
2023/10/08 06:56:13;;;;;;;5.88;1.65;;;13.40;99.90;;;;;;5045057;22;20108;-89
2023/10/08 06:58:45;;;;;;;4.65;1.20;;;13.40;99.90;;;;;;5008182;28;20057;-90
2023/10/08 07:01:13;;;;;;;6.68;1.30;;;13.50;99.90;;;;;;5007034;28;20111;-90
2023/10/08 07:03:39;;;;;;;6.18;1.70;;;13.40;99.90;;;;;;4997843;28;20127;-90
2023/10/08 07:06:16;;;;;;;3.92;1.25;;;13.40;99.90;;;;;;5008565;28;20092;-89
2023/10/08 07:08:46;;;;;;;6.03;0.90;;;13.50;99.90;;;;;;5025125;28;20496;-88
2023/10/08 07:11:12;;;;;;;5.28;1.40;;;13.50;99.90;;;;;;5026212;28;20057;-88
2023/10/08 07:13:40;;;;;;;2.78;1.15;;;13.50;99.90;;;;;;4983854;28;20057;-87
2023/10/08 07:16:06;;;;;;;4.05;1.42;;;13.50;99.90;;;;;;5005139;28;20049;-88
2023/10/08 07:18:33;;;;;;;3.10;1.00;;;13.50;99.90;;;;;;4997774;28;20499;-88
2023/10/08 07:21:04;;;;;;;6.50;1.50;;;13.50;99.90;;;;;;5004554;28;20038;-87
2023/10/08 07:23:34;;;;;;;4.72;1.33;;;13.50;99.90;;;;;;4993549;28;20052;-88
2023/10/08 07:26:11;;;;;;;3.67;1.08;;;13.50;99.90;;;;;;4991388;28;20729;-87
2023/10/08 07:28:41;;;;;;;5.47;1.40;;;13.60;99.90;;;;;;4992391;28;20041;-87
2023/10/08 07:31:17;;;;;;;6.85;1.70;;;13.70;99.90;;;;;;5006340;28;20116;-88
2023/10/08 07:33:57;;;;;;;4.20;1.30;;;13.70;99.90;;;;;;4990364;28;20053;-88
2023/10/08 07:36:24;;;;;;;5.35;1.83;;;13.80;99.90;;;;;;5005896;28;20087;-87
2023/10/08 07:38:51;;;;;;;4.35;1.60;;;13.90;99.90;;;;;;5003318;28;20085;-88
2023/10/08 07:41:19;;;;;;;5.15;1.48;;;13.90;99.90;;;;;;5005884;28;20154;-88
2023/10/08 07:43:58;;;;;;;6.85;1.92;;;14.00;99.90;;;;;;4982685;28;20081;-87
2023/10/08 07:46:28;;;;;;;3.63;1.23;;;14.10;99.90;;;;;;5002624;28;20397;-88
2023/10/08 07:48:54;;;;;;;2.78;1.42;;;14.20;99.90;;;;;;4988042;28;20046;-88
2023/10/08 07:51:23;;;;;;;3.45;1.30;;;14.20;99.90;;;;;;4995032;28;20124;-86
2023/10/08 07:53:56;;;;;;;4.43;1.30;;;14.20;99.90;;;;;;5002189;28;20040;-88
2023/10/08 07:56:22;;;;;;;4.95;1.42;;;14.30;99.90;;;;;;5011201;28;20067;-88
2023/10/08 07:58:48;;;;;;;5.65;1.40;;;14.30;99.90;;;;;;4996976;28;20132;-86
2023/10/08 08:01:14;;;;;;;5.55;1.25;;;14.30;99.90;;;;;;4999959;28;20140;-86
2023/10/08 08:03:41;;;;;;;3.67;1.30;;;14.40;99.90;;;;;;5007457;28;20084;-86
2023/10/08 08:06:10;;;;;;;2.83;1.10;;;14.50;99.90;;;;;;5007143;28;20038;-84
2023/10/08 08:08:37;;;;;;;4.72;1.90;;;14.60;99.90;;;;;;4995483;28;20096;-85
2023/10/08 08:11:11;;;;;;;4.68;1.10;;;14.80;99.90;;;;;;5009362;28;20056;-85
2023/10/08 08:13:44;;;;;;;4.28;1.50;;;14.90;99.90;;;;;;4990006;28;20084;-85
2023/10/08 08:16:20;;;;;;;8.45;1.33;;;14.90;99.90;;;;;;4997145;28;20037;-88
2023/10/08 08:18:48;;;;;;;7.35;1.52;;;14.90;99.90;;;;;;4992250;28;20125;-88
2023/10/08 08:21:19;;;;;;;3.72;1.55;;;15.00;99.90;;;;;;4988151;28;20069;-88
2023/10/08 08:23:49;;;;;;;5.32;1.48;;;15.40;99.90;;;;;;5015242;28;20049;-88
2023/10/08 08:26:32;;;;;;;3.90;1.23;;;16.00;99.90;;;;;;5019637;28;20112;-86
2023/10/08 08:29:01;;;;;;;3.77;1.20;;;16.60;99.90;;;;;;5006169;28;20095;-85
2023/10/08 08:31:31;;;;;;;4.25;1.40;;;16.80;99.90;;;;;;4994678;28;20369;-87
2023/10/08 08:33:59;;;;;;;6.85;1.60;;;16.90;99.90;;;;;;4998670;28;20455;-86
2023/10/08 08:36:27;;;;;;;5.47;1.55;;;16.70;99.90;;;;;;4993441;28;20037;-86
2023/10/08 08:38:53;;;;;;;5.50;1.60;;;16.60;99.90;;;;;;5014934;28;20034;-86
2023/10/08 08:41:20;;;;;;;4.88;1.55;;;16.60;99.90;;;;;;5019701;28;20041;-86
2023/10/08 08:43:58;;;;;;;4.97;1.30;;;16.50;99.90;;;;;;4994917;28;20041;-86
2023/10/08 08:46:45;;;;;;;5.38;1.50;;;16.40;99.90;;;;;;4998542;28;20129;-88
2023/10/08 08:49:12;;;;;;;8.43;1.77;;;16.30;99.90;;;;;;5003149;28;20042;-86
2023/10/08 08:51:38;;;;;;;4.07;1.90;;;16.30;99.90;;;;;;4997171;28;20113;-87
2023/10/08 08:54:14;;;;;;;7.13;1.38;;;16.20;99.90;;;;;;4991959;28;20048;-87
2023/10/08 08:56:43;;;;;;;5.15;1.45;;;16.20;99.90;;;;;;4988415;28;20057;-87
2023/10/08 08:59:11;;;;;;;4.97;1.20;;;16.30;99.90;;;;;;4995351;28;20041;-86
2023/10/08 09:01:39;;;;;;;2.92;1.60;;;16.40;99.90;;;;;;4989874;28;20050;-87
2023/10/08 09:04:05;;;;;;;5.65;1.67;;;16.40;99.90;;;;;;5001125;28;20044;-87
2023/10/08 09:06:37;;;;;;;5.80;1.45;;;16.50;99.90;;;;;;4992842;28;20451;-88
2023/10/08 09:09:22;;;;;;;6.63;1.77;;;16.50;99.90;;;;;;4988198;28;20152;-86
2023/10/08 09:11:52;;;;;;;3.60;1.58;;;16.50;99.90;;;;;;4982972;28;20050;-88
2023/10/08 09:14:25;;;;;;;4.93;1.20;;;16.60;99.90;;;;;;5000753;28;20054;-85
2023/10/08 09:16:54;;;;;;;4.72;1.60;;;16.70;99.90;;;;;;4993512;28;20045;-86
2023/10/08 09:19:23;;;;;;;2.80;1.10;;;16.70;99.90;;;;;;4993584;28;20041;-86
2023/10/08 09:22:12;;;;;;;5.78;1.40;;;16.80;99.90;;;;;;5005461;28;20061;-88
2023/10/08 09:24:39;;;;;;;3.55;1.30;;;16.90;99.90;;;;;;4987595;28;20046;-88
2023/10/08 09:27:18;;;;;;;5.88;1.15;;;17.00;99.90;;;;;;4987493;28;20107;-86
2023/10/08 09:29:44;;;;;;;4.35;1.30;;;17.10;99.90;;;;;;5007287;28;20049;-86
2023/10/08 09:32:11;;;;;;;5.35;1.60;;;17.60;99.90;;;;;;5008562;28;20049;-86
2023/10/08 09:34:37;;;;;;;5.82;1.30;;;18.30;99.90;;;;;;4999426;28;20074;-86
2023/10/08 09:37:03;;;;;;;5.93;1.75;;;18.60;99.90;;;;;;5008990;28;20034;-86
2023/10/08 09:39:33;;;;;;;4.88;1.48;;;18.90;99.90;;;;;;5005369;28;20049;-86
2023/10/08 09:42:03;;;;;;;4.28;1.38;;;18.80;99.90;;;;;;5007157;28;20081;-86
2023/10/08 09:44:30;;;;;;;4.97;1.55;;;18.70;99.90;;;;;;4995078;28;20045;-85
2023/10/08 09:47:06;;;;;;;6.85;1.58;;;18.60;99.90;;;;;;4990046;28;20046;-86
2023/10/08 09:49:36;;;;;;;7.35;1.38;;;18.40;99.90;;;;;;5005480;28;20041;-87
2023/10/08 09:52:05;;;;;;;4.88;1.20;;;18.50;99.90;;;;;;4989633;28;20492;-86
2023/10/08 09:54:42;;;;;;;9.02;1.70;;;18.90;99.90;;;;;;5010015;28;20045;-86
2023/10/08 09:57:08;;;;;;;4.22;1.80;;;19.20;99.90;;;;;;4988859;28;20076;-87
2023/10/08 09:59:34;;;;;;;6.07;1.40;;;19.60;99.90;;;;;;5001032;28;20760;-87
2023/10/08 10:02:02;;;;;;;5.22;1.77;;;20.00;99.90;;;;;;4991605;28;20046;-86
2023/10/08 10:04:31;;;;;;;5.43;1.45;;;20.50;99.90;;;;;;4992219;28;20056;-87
2023/10/08 10:09:36;;;;;;;4.13;1.45;;;20.60;99.90;;;;;;5075617;22;20075;-39
2023/10/08 10:12:02;;;;;;;6.03;1.38;;;20.90;99.90;;;;;;5043942;28;20044;-40
2023/10/08 10:14:42;;;;;;;4.40;1.58;;;21.10;99.90;;;;;;5060474;28;20056;-38
2023/10/08 10:17:22;;;;;;;8.13;1.52;;;21.10;99.90;;;;;;5057475;28;20391;-41
2023/10/08 10:20:13;;;;;;;3.67;1.35;;;21.10;99.90;;;;;;5067261;28;20040;-37
2023/10/08 10:22:38;;;;;;;6.45;1.67;;;21.30;99.90;;;;;;5064106;28;20053;-42
2023/10/08 10:25:17;;;;;;;5.22;1.70;;;21.40;99.90;;;;;;5064895;28;20037;-41
2023/10/08 10:28:08;;;;;;;3.40;1.40;;;21.40;99.90;;;;;;5057872;28;20040;-40
2023/10/08 10:30:34;;;;;;;5.22;1.55;;;21.60;99.90;;;;;;5062230;28;20568;-41
2023/10/08 10:33:01;;;;;;;5.35;1.52;;;21.50;99.90;;;;;;5058972;28;20079;-40
2023/10/08 10:35:27;;;;;;;5.60;1.73;;;21.20;99.90;;;;;;5059956;28;20132;-42
2023/10/08 10:37:55;;;;;;;4.38;1.50;;;20.80;99.90;;;;;;5063091;28;20049;-40
2023/10/08 10:40:29;;;;;;;3.45;1.35;;;20.50;99.90;;;;;;5048275;28;20115;-42
2023/10/08 10:43:00;;;;;;;4.60;1.50;;;20.10;99.90;;;;;;5065146;28;20053;-39
2023/10/08 10:45:42;;;;;;;7.53;1.52;;;19.80;99.90;;;;;;5063068;28;20557;-39
2023/10/08 10:53:44;;;;;;;6.43;1.90;;;19.40;99.90;;;;;;5059302;28;20048;-42
2023/10/08 10:56:18;;;;;;;5.82;1.67;;;19.40;99.90;;;;;;5066139;28;20036;-38
2023/10/08 10:58:53;;;;;;;5.03;1.38;;;19.30;99.90;;;;;;5046774;28;20052;-39
2023/10/08 11:01:29;;;;;;;4.93;1.40;;;19.60;99.90;;;;;;5069923;28;20075;-40
2023/10/08 11:03:57;;;;;;;3.92;1.33;;;19.90;99.90;;;;;;5070213;28;20511;-37
2023/10/08 11:06:25;;;;;;;5.13;1.30;;;20.00;99.90;;;;;;5067206;28;20040;-39
2023/10/08 11:08:52;;;;;;;4.75;1.52;;;20.10;99.90;;;;;;5069155;28;20594;-39
2023/10/08 11:11:29;;;;;;;7.40;1.70;;;20.30;99.90;;;;;;5069048;28;20048;-39
2023/10/08 11:14:03;;;;;;;4.90;1.95;;;20.20;99.90;;;;;;5070688;28;20032;-38
2023/10/08 11:16:31;;;;;;;8.77;1.38;;;20.10;99.90;;;;;;5068799;28;20055;-41
2023/10/08 11:19:01;;;;;;;6.10;2.25;;;19.80;99.90;;;;;;5070820;28;20044;-40
2023/10/08 11:21:31;;;;;;;6.10;1.60;;;19.60;99.90;;;;;;5068554;28;20474;-37
2023/10/08 11:23:59;;;;;;;5.25;1.33;;;19.50;99.90;;;;;;5080565;28;20048;-38
2023/10/08 11:26:32;;;;;;;5.53;1.60;;;19.40;99.90;;;;;;5057887;28;20127;-40
2023/10/08 11:29:02;;;;;;;5.63;1.90;;;19.40;99.90;;;;;;5078699;28;20105;-40
2023/10/08 11:31:29;;;;;;;3.42;1.35;;;19.30;99.90;;;;;;5070719;28;20051;-40
2023/10/08 11:34:08;;;;;;;4.65;1.48;;;19.20;99.90;;;;;;5042272;28;20055;-38
2023/10/08 11:36:48;;;;;;;5.10;1.50;;;19.20;99.90;;;;;;5073984;28;20044;-35
2023/10/08 11:39:21;;;;;;;4.15;1.60;;;19.40;99.90;;;;;;5073619;28;20036;-37
2023/10/08 11:42:24;;;;;;;4.75;1.20;;;19.50;99.90;;;;;;5069929;28;20456;-35
2023/10/08 11:44:52;;;;;;;4.23;1.60;;;19.70;99.90;;;;;;5075504;28;20037;-37
2023/10/08 11:47:21;;;;;;;7.15;1.65;;;19.70;99.90;;;;;;5074714;28;20321;-37
2023/10/08 11:49:50;;;;;;;5.53;1.50;;;19.70;99.90;;;;;;5075785;28;20036;-34
2023/10/08 11:52:16;;;;;;;5.25;1.60;;;19.90;99.90;;;;;;5074944;28;20048;-38
2023/10/08 11:54:44;;;;;;;5.80;1.50;;;20.30;99.90;;;;;;5070083;28;20044;-37
2023/10/08 11:57:11;;;;;;;4.70;1.55;;;20.50;99.90;;;;;;5073305;28;21469;-35
2023/10/08 11:59:41;;;;;;;5.93;1.70;;;20.60;98.10;;;;;;5071888;28;20039;-35
2023/10/08 12:02:07;;;;;;;7.45;1.90;;;20.70;97.90;;;;;;5068541;28;20040;-35
2023/10/08 12:04:32;;;;;;;6.60;1.65;;;20.90;99.20;;;;;;5071077;28;20388;-35
2023/10/08 12:07:02;;;;;;;5.07;1.42;;;21.00;98.20;;;;;;5066635;28;20055;-37
2023/10/08 12:09:28;;;;;;;3.33;1.58;;;21.20;96.50;;;;;;5055727;28;20052;-38
2023/10/08 12:11:56;;;;;;;9.95;1.80;;;21.60;96.80;;;;;;5073759;28;20480;-40
2023/10/08 12:14:26;;;;;;;2.95;1.40;;;21.70;95.60;;;;;;5051715;28;20037;-41
2023/10/08 12:16:52;;;;;;;4.80;1.95;;;21.50;95.30;;;;;;5076529;28;20041;-39
2023/10/08 12:19:18;;;;;;;4.97;1.42;;;21.70;95.70;;;;;;5068887;28;20397;-39
2023/10/08 12:21:47;;;;;;;7.55;1.70;;;21.60;94.30;;;;;;5080941;28;20114;-40
2023/10/08 12:24:14;;;;;;;7.25;1.50;;;21.60;94.50;;;;;;5073374;28;20522;-38
2023/10/08 12:26:46;;;;;;;4.72;1.50;;;21.50;93.30;;;;;;5069999;28;20040;-40
2023/10/08 12:29:17;;;;;;;3.17;1.50;;;21.30;93.40;;;;;;5083237;28;20048;-37
2023/10/08 12:31:47;;;;;;;6.07;1.60;;;21.40;93.20;;;;;;5067965;28;20418;-37
2023/10/08 12:34:13;;;;;;;4.15;1.23;;;21.50;92.80;;;;;;5070954;28;20098;-35
2023/10/08 12:36:39;;;;;;;5.63;1.98;;;21.60;93.10;;;;;;5071179;28;20111;-39
2023/10/08 12:39:28;;;;;;;4.38;1.50;;;22.20;93.10;;;;;;5071874;28;20063;-36
2023/10/08 12:41:53;;;;;;;4.70;1.63;;;23.10;92.80;;;;;;5076334;28;20047;-35
2023/10/08 12:44:19;;;;;;;7.63;1.80;;;24.00;92.90;;;;;;5070839;28;20036;-35
2023/10/08 12:46:48;;;;;;;4.65;1.42;;;24.50;90.10;;;;;;5073428;28;20044;-35
2023/10/08 12:49:14;;;;;;;4.50;1.42;;;24.80;84.50;;;;;;5071825;28;20033;-36
2023/10/08 12:51:41;;;;;;;3.58;1.40;;;25.20;80.30;;;;;;5074550;28;20098;-35
2023/10/08 12:54:07;;;;;;;5.03;1.50;;;25.10;77.10;;;;;;5072688;28;20040;-36
2023/10/08 12:56:55;;;;;;;4.30;1.67;;;25.00;78.40;;;;;;5069300;28;20048;-34
2023/10/08 12:59:21;;;;;;;6.25;1.70;;;24.90;77.40;;;;;;5066649;28;20024;-35
2023/10/08 13:01:51;;;;;;;5.22;1.60;;;25.20;75.70;;;;;;5056296;28;20045;-34
2023/10/08 13:04:34;;;;;;;2.83;1.20;;;25.60;75.80;;;;;;5071167;28;20044;-35
2023/10/08 13:07:03;;;;;;;4.30;1.50;;;26.20;75.80;;;;;;5071679;28;20040;-35
2023/10/08 13:09:36;;;;;;;3.67;1.48;;;26.90;74.30;;;;;;5071316;28;20131;-35
2023/10/08 13:12:02;;;;;;;;;;;27.50;72.50;;;;;;5073016;28;20043;-35
2023/10/08 13:14:28;;;;;;;4.65;1.50;;;28.00;66.00;;;;;;5072311;28;19920;-36
2023/10/08 13:16:53;;;;;;;4.32;1.48;;;28.20;68.00;;;;;;5075250;28;20404;-35
2023/10/08 13:19:20;;;;;;;4.18;1.42;;;28.60;64.50;;;;;;5072531;28;20028;-35
2023/10/08 13:21:47;;;;;;;5.43;1.60;;;28.90;63.00;;;;;;5051668;28;20056;-35
2023/10/08 13:24:13;;;;;;;3.03;1.40;;;28.40;62.10;;;;;;5067520;28;20404;-35
2023/10/08 13:26:39;;;;;;;5.55;1.52;;;27.40;61.30;;;;;;5068116;28;20043;-35
2023/10/08 13:29:09;;;;;;;4.35;1.60;;;26.40;61.60;;;;;;5071751;28;20467;-35
2023/10/08 13:31:36;;;;;;;5.82;1.70;;;26.00;63.00;;;;;;5048615;28;20047;-35
2023/10/08 13:34:03;;;;;;;4.00;1.70;;;25.80;64.30;;;;;;5071515;28;20043;-35
2023/10/08 13:36:29;;;;;;;4.85;1.33;;;25.80;64.30;;;;;;5075246;28;20511;-34
2023/10/08 13:38:56;;;;;;;4.57;1.42;;;26.50;64.90;;;;;;5071124;28;20228;-35
2023/10/08 13:41:21;;;;;;;4.15;1.42;;;26.70;63.00;;;;;;5071689;28;20084;-36
2023/10/08 13:43:51;;;;;;;4.88;1.40;;;26.00;61.70;;;;;;5071728;28;20029;-34
2023/10/08 13:46:18;;;;;;;3.00;1.45;;;25.10;63.10;;;;;;5073239;28;20051;-35
2023/10/08 13:48:50;;;;;;;4.50;1.40;;;24.60;64.40;;;;;;5068148;28;20456;-35
2023/10/08 13:51:20;;;;;;;3.92;1.50;;;24.20;64.90;;;;;;5065922;28;20038;-35
2023/10/08 13:53:59;;;;;;;4.13;1.70;;;23.70;65.60;;;;;;5073200;28;20483;-35
2023/10/08 13:56:30;;;;;;;5.72;1.65;;;23.10;66.00;;;;;;5067278;28;20111;-35
2023/10/08 13:59:31;;;;;;;5.32;1.67;;;22.20;67.60;;;;;;5072651;28;20070;-36
2023/10/08 14:01:51;;;;;;;4.30;1.40;;;21.70;69.40;;;;;;5070621;28;20057;-35
2023/10/08 14:04:19;;;;;;;3.20;1.50;;;21.30;70.60;;;;;;5063549;28;20066;-35
2023/10/08 14:06:52;;;;;;;4.47;1.42;;;21.10;71.40;;;;;;5063020;28;20049;-35
2023/10/08 14:09:22;;;;;;;5.78;1.40;;;20.90;71.90;;;;;;5075689;28;20097;-36
2023/10/08 14:11:52;;;;;;;5.05;1.65;;;20.70;73.80;;;;;;5078145;28;20119;-35
2023/10/08 14:14:19;;;;;;;5.30;1.48;;;20.40;74.10;;;;;;5069744;28;20032;-35
2023/10/08 14:16:51;;;;;;;4.15;1.58;;;20.10;75.00;;;;;;5079009;28;20076;-36
2023/10/08 14:19:22;;;;;;;3.60;1.40;;;19.90;77.00;;;;;;5073882;28;20036;-36
2023/10/08 14:21:49;;;;;;;6.30;1.38;;;19.70;77.90;;;;;;5072469;28;20502;-35
2023/10/08 14:24:16;;;;;;;5.15;1.20;;;19.70;78.20;;;;;;5073970;28;20036;-35
2023/10/08 14:26:43;;;;;;;4.50;1.40;;;19.70;78.80;;;;;;5051693;28;20041;-35
2023/10/08 14:29:15;;;;;;;6.60;1.38;;;19.70;80.10;;;;;;5076298;28;20572;-35
2023/10/08 14:31:43;;;;;;;4.30;1.23;;;19.50;80.80;;;;;;5072912;28;20032;-36
2023/10/08 14:45:11;;;;;;;6.72;1.50;;;19.00;86.20;;;;;;5067355;28;20450;-36